Airfield :
LOGIN :

Register | Disclaimer

   EN    FR    IT 

 










Legend :    VFR   Marginal VFR   IFR   Intensive IFR   Very Intensive IFR
Visi :
Ceiling :
>= 8 km
>= 3000ft
5 to 8 km
1000 to 3000 ft
1500m to 5 km
500 to 1000 ft
800 to 1500m
200 to 500 ft
< 800m
< 200 ft
Symbols :   Thunderstorms  Fog  Heavy snow  Heavy precipitations  Wind > 20 kt
SIGMETs :     Misc.  Thunderstorms  Icing  Turbulence  Mountain Waves  Volcanic Ashes







- Airport Elevation : 219 ft
- IATA code : DNR
- Download approach charts


LFRD - Dinard

CURRENT METAR :
  • 222000Z AUTO 31006KT 290V360 9999 BKN007 OVC031 11/10 Q1015 TEMPO BKN004

EXPIRED METARs :
  • 221930Z AUTO 33006KT 290V350 9999 FEW008 OVC034 11/09 Q1015 TEMPO BKN004
  • 221900Z AUTO 31005KT 9999 BKN036 BKN052 BKN120 11/08 Q1015 TEMPO BKN004
  • 221830Z AUTO 34006KT 310V020 9999 BKN039 OVC050 12/08 Q1014 TEMPO BKN004
  • 221800Z AUTO 32005KT 9999 OVC041 12/07 Q1014 TEMPO BKN004
  • 221730Z AUTO 31005KT 280V350 9999 BKN040 OVC049 12/08 Q1014 TEMPO BKN004

TAF TAF LFRD
Valid from the 22 at 18:00 until the 23 at 18:00 UTC


221700Z 2218/2318 32007KT CAVOK
TEMPO 2218/2308 BKN008
PROB30
TEMPO 2218/2308 BKN004
ATIS : +33 2 99 16 81 50
No reported NOTAMs for that airfield.
1 SIGMET reported for the Brest FIR (LFRR) :
 
Embedded thunderstorms
LFRR SIGMET 1 VALID 221900/222100 LFPW
LFRR BREST FIR/UIR EMBD TS FCST WI N4430 W00145 - N4330 W00145 - N4400 W00330 - N4415 W00245 - N4430 W00145 TOP FL350 STNR INTSF=



MET'MAP, your aeronautical weather chart ! - Copyright ORBIFLY December 2007 - Disclaimer

ORBIFLY MET'MAP TEAM :

Programming & Development : Alexandra Zaïnal
Concept & Development : Baudouin d'Aumeries
Co-Development & Prog : Marc-Olivier Méhu
Technical & hardware support : Manuel Goepfert

Contact : metmap@orbifly.com




SOURCES & CREDITS :

   NOAA